Lincoln, Illinois
Current Conditions -  °F | °C
As of 7:55 AM on Monday 24 Nov 2014 (Local Time) from KAAA Reporting Station
Light Snow Light Snow  
Wind Chill: 27°   Ceiling: 1300
Heat Index: 35°   Visibility: 4mi
Dew Point: 33°   Wind: 10mph
Humidity: 95%   Direction: 260°W
Pressure: 29.38"   Gusts: 22mph
Location:  40.15°N, 89.36°W
Report Text: KAAA 241355Z AUTO 26009G19KT 200V300 4SM -SN SCT010 BKN013 OVC021 01/01 A2938 RMK AO2 T00140007
Loading
Personal Weather Stations






























Interactive Weather Map New forecast layout! Learn more

10-Day Weather Forecast

Advertisements
Track Severe Weather on mobile